sensor_id;sensor_type;location;lat;lon;timestamp;P1;durP1;ratioP1;P2;durP2;ratioP2
19312;SDS011;9791;50.820;4.406;2023-03-01T00:01:17;12.03;;;6.90;;
19312;SDS011;9791;50.820;4.406;2023-03-01T00:03:44;10.53;;;7.20;;
19312;SDS011;9791;50.820;4.406;2023-03-01T00:06:10;11.50;;;7.07;;
19312;SDS011;9791;50.820;4.406;2023-03-01T00:08:36;11.60;;;6.97;;
19312;SDS011;9791;50.820;4.406;2023-03-01T00:11:06;10.57;;;6.80;;
19312;SDS011;9791;50.820;4.406;2023-03-01T00:13:35;10.80;;;6.67;;
19312;SDS011;9791;50.820;4.406;2023-03-01T00:16:02;11.50;;;6.83;;
19312;SDS011;9791;50.820;4.406;2023-03-01T00:18:28;11.93;;;7.63;;
19312;SDS011;9791;50.820;4.406;2023-03-01T00:20:54;10.30;;;7.17;;
19312;SDS011;9791;50.820;4.406;2023-03-01T00:23:21;13.33;;;7.23;;
19312;SDS011;9791;50.820;4.406;2023-03-01T00:25:47;10.47;;;7.13;;
19312;SDS011;9791;50.820;4.406;2023-03-01T00:28:14;10.47;;;6.70;;
19312;SDS011;9791;50.820;4.406;2023-03-01T00:30:40;10.43;;;6.73;;
19312;SDS011;9791;50.820;4.406;2023-03-01T00:33:06;12.37;;;7.50;;
19312;SDS011;9791;50.820;4.406;2023-03-01T00:35:32;11.60;;;6.80;;
19312;SDS011;9791;50.820;4.406;2023-03-01T00:37:58;14.80;;;8.53;;
19312;SDS011;9791;50.820;4.406;2023-03-01T00:40:25;13.90;;;7.60;;
19312;SDS011;9791;50.820;4.406;2023-03-01T00:42:51;12.70;;;6.13;;
19312;SDS011;9791;50.820;4.406;2023-03-01T00:45:17;10.90;;;6.77;;
19312;SDS011;9791;50.820;4.406;2023-03-01T00:47:43;10.60;;;6.43;;
19312;SDS011;9791;50.820;4.406;2023-03-01T00:50:09;10.30;;;6.67;;
19312;SDS011;9791;50.820;4.406;2023-03-01T00:52:36;10.93;;;6.90;;
19312;SDS011;9791;50.820;4.406;2023-03-01T00:55:02;13.00;;;7.73;;
19312;SDS011;9791;50.820;4.406;2023-03-01T00:57:28;13.53;;;6.97;;
19312;SDS011;9791;50.820;4.406;2023-03-01T00:59:55;13.07;;;7.17;;
19312;SDS011;9791;50.820;4.406;2023-03-01T01:02:21;8.93;;;6.33;;
19312;SDS011;9791;50.820;4.406;2023-03-01T01:04:47;10.93;;;7.23;;
19312;SDS011;9791;50.820;4.406;2023-03-01T01:07:14;12.93;;;7.40;;
19312;SDS011;9791;50.820;4.406;2023-03-01T01:09:40;10.10;;;6.10;;
19312;SDS011;9791;50.820;4.406;2023-03-01T01:12:06;13.30;;;7.40;;
19312;SDS011;9791;50.820;4.406;2023-03-01T01:14:32;11.40;;;6.90;;
19312;SDS011;9791;50.820;4.406;2023-03-01T01:16:58;14.03;;;6.97;;
19312;SDS011;9791;50.820;4.406;2023-03-01T01:19:25;9.70;;;6.47;;
19312;SDS011;9791;50.820;4.406;2023-03-01T01:21:51;10.30;;;6.50;;
19312;SDS011;9791;50.820;4.406;2023-03-01T01:24:17;9.70;;;6.13;;
19312;SDS011;9791;50.820;4.406;2023-03-01T01:26:43;10.70;;;6.57;;
19312;SDS011;9791;50.820;4.406;2023-03-01T01:29:09;10.87;;;6.63;;
19312;SDS011;9791;50.820;4.406;2023-03-01T01:31:36;12.70;;;7.33;;
19312;SDS011;9791;50.820;4.406;2023-03-01T01:34:04;12.40;;;6.80;;
19312;SDS011;9791;50.820;4.406;2023-03-01T01:36:31;11.27;;;7.23;;
19312;SDS011;9791;50.820;4.406;2023-03-01T01:38:57;10.37;;;6.47;;
19312;SDS011;9791;50.820;4.406;2023-03-01T01:41:24;9.07;;;6.30;;
19312;SDS011;9791;50.820;4.406;2023-03-01T01:44:13;9.50;;;6.20;;
19312;SDS011;9791;50.820;4.406;2023-03-01T01:46:37;10.60;;;6.53;;
19312;SDS011;9791;50.820;4.406;2023-03-01T01:49:10;10.17;;;6.83;;
19312;SDS011;9791;50.820;4.406;2023-03-01T01:51:39;11.20;;;6.53;;
19312;SDS011;9791;50.820;4.406;2023-03-01T01:54:31;12.13;;;6.60;;
19312;SDS011;9791;50.820;4.406;2023-03-01T01:56:55;9.57;;;6.33;;
19312;SDS011;9791;50.820;4.406;2023-03-01T01:59:22;11.63;;;6.00;;
19312;SDS011;9791;50.820;4.406;2023-03-01T02:01:49;10.47;;;6.70;;
19312;SDS011;9791;50.820;4.406;2023-03-01T02:04:15;10.90;;;6.73;;
19312;SDS011;9791;50.820;4.406;2023-03-01T02:06:45;12.43;;;6.83;;
19312;SDS011;9791;50.820;4.406;2023-03-01T02:09:13;11.80;;;7.37;;
19312;SDS011;9791;50.820;4.406;2023-03-01T02:11:39;11.80;;;6.67;;
19312;SDS011;9791;50.820;4.406;2023-03-01T02:14:05;10.80;;;7.13;;
19312;SDS011;9791;50.820;4.406;2023-03-01T02:16:31;13.20;;;6.80;;
19312;SDS011;9791;50.820;4.406;2023-03-01T02:18:58;10.47;;;6.83;;
19312;SDS011;9791;50.820;4.406;2023-03-01T02:23:54;12.07;;;7.57;;
19312;SDS011;9791;50.820;4.406;2023-03-01T02:28:56;10.33;;;6.47;;
19312;SDS011;9791;50.820;4.406;2023-03-01T02:31:22;12.30;;;7.57;;
19312;SDS011;9791;50.820;4.406;2023-03-01T02:34:07;11.77;;;7.07;;
19312;SDS011;9791;50.820;4.406;2023-03-01T02:36:53;10.23;;;6.10;;
19312;SDS011;9791;50.820;4.406;2023-03-01T02:39:22;12.57;;;7.13;;
19312;SDS011;9791;50.820;4.406;2023-03-01T02:41:50;11.10;;;7.27;;
19312;SDS011;9791;50.820;4.406;2023-03-01T02:44:17;12.83;;;6.87;;
19312;SDS011;9791;50.820;4.406;2023-03-01T02:46:45;10.67;;;7.07;;
19312;SDS011;9791;50.820;4.406;2023-03-01T02:49:25;10.67;;;6.47;;
19312;SDS011;9791;50.820;4.406;2023-03-01T02:56:46;10.60;;;6.97;;
19312;SDS011;9791;50.820;4.406;2023-03-01T02:59:15;11.60;;;6.83;;
19312;SDS011;9791;50.820;4.406;2023-03-01T03:01:42;11.40;;;7.33;;
19312;SDS011;9791;50.820;4.406;2023-03-01T03:04:09;10.03;;;6.73;;
19312;SDS011;9791;50.820;4.406;2023-03-01T03:06:36;8.80;;;6.43;;
19312;SDS011;9791;50.820;4.406;2023-03-01T03:09:03;16.03;;;7.63;;
19312;SDS011;9791;50.820;4.406;2023-03-01T03:11:29;10.47;;;7.03;;
19312;SDS011;9791;50.820;4.406;2023-03-01T03:13:55;11.33;;;7.07;;
19312;SDS011;9791;50.820;4.406;2023-03-01T03:16:22;11.67;;;6.93;;
19312;SDS011;9791;50.820;4.406;2023-03-01T03:18:49;10.97;;;6.83;;
19312;SDS011;9791;50.820;4.406;2023-03-01T03:21:15;9.77;;;6.43;;
19312;SDS011;9791;50.820;4.406;2023-03-01T03:23:42;12.70;;;7.37;;
19312;SDS011;9791;50.820;4.406;2023-03-01T03:26:08;13.07;;;7.27;;
19312;SDS011;9791;50.820;4.406;2023-03-01T03:28:38;10.63;;;6.70;;
19312;SDS011;9791;50.820;4.406;2023-03-01T03:31:05;11.53;;;7.43;;
19312;SDS011;9791;50.820;4.406;2023-03-01T03:33:32;13.50;;;7.47;;
19312;SDS011;9791;50.820;4.406;2023-03-01T03:35:58;11.10;;;6.60;;
19312;SDS011;9791;50.820;4.406;2023-03-01T03:38:24;13.43;;;7.00;;
19312;SDS011;9791;50.820;4.406;2023-03-01T03:40:52;11.57;;;7.60;;
19312;SDS011;9791;50.820;4.406;2023-03-01T03:43:21;11.57;;;7.67;;
19312;SDS011;9791;50.820;4.406;2023-03-01T03:45:48;9.00;;;6.40;;
19312;SDS011;9791;50.820;4.406;2023-03-01T03:48:14;12.53;;;7.10;;
19312;SDS011;9791;50.820;4.406;2023-03-01T03:50:41;11.17;;;7.40;;
19312;SDS011;9791;50.820;4.406;2023-03-01T03:53:08;16.00;;;7.53;;
19312;SDS011;9791;50.820;4.406;2023-03-01T03:55:35;12.37;;;6.77;;
19312;SDS011;9791;50.820;4.406;2023-03-01T03:58:04;20.00;;;7.57;;
19312;SDS011;9791;50.820;4.406;2023-03-01T04:00:32;14.83;;;7.50;;
19312;SDS011;9791;50.820;4.406;2023-03-01T04:02:58;13.33;;;7.63;;
19312;SDS011;9791;50.820;4.406;2023-03-01T04:05:26;11.87;;;6.67;;
19312;SDS011;9791;50.820;4.406;2023-03-01T04:07:52;11.60;;;7.00;;
19312;SDS011;9791;50.820;4.406;2023-03-01T04:10:38;13.17;;;7.63;;
19312;SDS011;9791;50.820;4.406;2023-03-01T04:13:06;11.67;;;7.47;;
19312;SDS011;9791;50.820;4.406;2023-03-01T04:15:32;15.00;;;8.07;;
19312;SDS011;9791;50.820;4.406;2023-03-01T04:17:58;12.80;;;7.00;;
19312;SDS011;9791;50.820;4.406;2023-03-01T04:20:29;13.17;;;8.20;;
19312;SDS011;9791;50.820;4.406;2023-03-01T04:23:00;14.33;;;7.60;;
19312;SDS011;9791;50.820;4.406;2023-03-01T04:25:35;11.57;;;6.67;;
19312;SDS011;9791;50.820;4.406;2023-03-01T04:28:01;11.97;;;7.40;;
19312;SDS011;9791;50.820;4.406;2023-03-01T04:30:27;13.07;;;8.00;;
19312;SDS011;9791;50.820;4.406;2023-03-01T04:32:53;12.53;;;7.40;;
19312;SDS011;9791;50.820;4.406;2023-03-01T04:35:19;12.13;;;7.33;;
19312;SDS011;9791;50.820;4.406;2023-03-01T04:37:45;14.93;;;8.27;;
19312;SDS011;9791;50.820;4.406;2023-03-01T04:40:13;13.10;;;7.90;;
19312;SDS011;9791;50.820;4.406;2023-03-01T04:42:41;15.17;;;6.93;;
19312;SDS011;9791;50.820;4.406;2023-03-01T04:45:08;11.80;;;7.40;;
19312;SDS011;9791;50.820;4.406;2023-03-01T04:47:43;12.63;;;7.40;;
19312;SDS011;9791;50.820;4.406;2023-03-01T04:50:11;12.50;;;7.43;;
19312;SDS011;9791;50.820;4.406;2023-03-01T04:52:37;12.33;;;8.10;;
19312;SDS011;9791;50.820;4.406;2023-03-01T04:55:04;11.93;;;7.70;;
19312;SDS011;9791;50.820;4.406;2023-03-01T04:57:30;14.30;;;7.40;;
19312;SDS011;9791;50.820;4.406;2023-03-01T04:59:56;17.47;;;7.50;;
19312;SDS011;9791;50.820;4.406;2023-03-01T05:02:22;11.50;;;7.67;;
19312;SDS011;9791;50.820;4.406;2023-03-01T05:04:49;12.80;;;7.30;;
19312;SDS011;9791;50.820;4.406;2023-03-01T05:07:15;11.07;;;7.37;;
19312;SDS011;9791;50.820;4.406;2023-03-01T05:09:47;13.50;;;7.70;;
19312;SDS011;9791;50.820;4.406;2023-03-01T05:12:13;10.93;;;7.40;;
19312;SDS011;9791;50.820;4.406;2023-03-01T05:14:40;13.90;;;7.40;;
19312;SDS011;9791;50.820;4.406;2023-03-01T05:17:06;14.93;;;7.47;;
19312;SDS011;9791;50.820;4.406;2023-03-01T05:19:33;11.33;;;7.23;;
19312;SDS011;9791;50.820;4.406;2023-03-01T05:21:59;12.00;;;7.37;;
19312;SDS011;9791;50.820;4.406;2023-03-01T05:24:32;13.47;;;8.23;;
19312;SDS011;9791;50.820;4.406;2023-03-01T05:26:58;12.23;;;7.20;;
19312;SDS011;9791;50.820;4.406;2023-03-01T05:29:25;12.47;;;7.40;;
19312;SDS011;9791;50.820;4.406;2023-03-01T05:31:52;13.33;;;7.30;;
19312;SDS011;9791;50.820;4.406;2023-03-01T05:34:22;13.60;;;7.67;;
19312;SDS011;9791;50.820;4.406;2023-03-01T05:36:48;13.77;;;7.43;;
19312;SDS011;9791;50.820;4.406;2023-03-01T05:39:18;12.70;;;7.43;;
19312;SDS011;9791;50.820;4.406;2023-03-01T05:41:44;13.50;;;7.70;;
19312;SDS011;9791;50.820;4.406;2023-03-01T05:44:10;14.17;;;7.60;;
19312;SDS011;9791;50.820;4.406;2023-03-01T05:46:37;16.20;;;7.73;;
19312;SDS011;9791;50.820;4.406;2023-03-01T05:49:03;13.33;;;7.33;;
19312;SDS011;9791;50.820;4.406;2023-03-01T05:51:30;13.70;;;7.87;;
19312;SDS011;9791;50.820;4.406;2023-03-01T05:53:57;11.10;;;7.30;;
19312;SDS011;9791;50.820;4.406;2023-03-01T05:56:23;21.53;;;8.50;;
19312;SDS011;9791;50.820;4.406;2023-03-01T05:58:49;10.73;;;7.30;;
19312;SDS011;9791;50.820;4.406;2023-03-01T06:01:15;12.47;;;7.73;;
19312;SDS011;9791;50.820;4.406;2023-03-01T06:03:41;13.33;;;8.13;;
19312;SDS011;9791;50.820;4.406;2023-03-01T06:06:07;11.67;;;7.83;;
19312;SDS011;9791;50.820;4.406;2023-03-01T06:08:33;15.90;;;8.40;;
19312;SDS011;9791;50.820;4.406;2023-03-01T06:10:59;13.43;;;7.80;;
19312;SDS011;9791;50.820;4.406;2023-03-01T06:13:26;15.17;;;8.07;;
19312;SDS011;9791;50.820;4.406;2023-03-01T06:15:52;15.80;;;7.23;;
19312;SDS011;9791;50.820;4.406;2023-03-01T06:18:18;13.13;;;7.87;;
19312;SDS011;9791;50.820;4.406;2023-03-01T06:20:44;12.87;;;7.77;;
19312;SDS011;9791;50.820;4.406;2023-03-01T06:23:10;13.03;;;8.23;;
19312;SDS011;9791;50.820;4.406;2023-03-01T06:25:36;18.20;;;8.03;;
19312;SDS011;9791;50.820;4.406;2023-03-01T06:28:02;12.10;;;7.47;;
19312;SDS011;9791;50.820;4.406;2023-03-01T06:30:29;11.50;;;7.70;;
19312;SDS011;9791;50.820;4.406;2023-03-01T06:32:56;16.70;;;7.90;;
19312;SDS011;9791;50.820;4.406;2023-03-01T06:35:25;15.27;;;8.07;;
19312;SDS011;9791;50.820;4.406;2023-03-01T06:37:54;11.37;;;7.90;;
19312;SDS011;9791;50.820;4.406;2023-03-01T06:40:21;12.23;;;7.73;;
19312;SDS011;9791;50.820;4.406;2023-03-01T06:42:48;14.10;;;8.40;;
19312;SDS011;9791;50.820;4.406;2023-03-01T06:45:14;17.10;;;8.63;;
19312;SDS011;9791;50.820;4.406;2023-03-01T06:47:40;19.17;;;8.40;;
19312;SDS011;9791;50.820;4.406;2023-03-01T06:50:06;17.70;;;8.10;;
19312;SDS011;9791;50.820;4.406;2023-03-01T06:52:33;13.53;;;7.80;;
19312;SDS011;9791;50.820;4.406;2023-03-01T06:54:59;16.13;;;8.27;;
19312;SDS011;9791;50.820;4.406;2023-03-01T06:57:27;15.73;;;8.40;;
19312;SDS011;9791;50.820;4.406;2023-03-01T06:59:53;16.40;;;7.97;;
19312;SDS011;9791;50.820;4.406;2023-03-01T07:02:19;12.17;;;7.80;;
19312;SDS011;9791;50.820;4.406;2023-03-01T07:04:45;16.57;;;7.77;;
19312;SDS011;9791;50.820;4.406;2023-03-01T07:07:11;10.90;;;7.07;;
19312;SDS011;9791;50.820;4.406;2023-03-01T07:09:37;15.73;;;8.30;;
19312;SDS011;9791;50.820;4.406;2023-03-01T07:12:03;13.70;;;6.97;;
19312;SDS011;9791;50.820;4.406;2023-03-01T07:14:29;18.63;;;8.07;;
19312;SDS011;9791;50.820;4.406;2023-03-01T07:16:55;13.93;;;8.03;;
19312;SDS011;9791;50.820;4.406;2023-03-01T07:19:22;17.33;;;7.43;;
19312;SDS011;9791;50.820;4.406;2023-03-01T07:21:48;11.87;;;6.90;;
19312;SDS011;9791;50.820;4.406;2023-03-01T07:24:14;9.00;;;6.33;;
19312;SDS011;9791;50.820;4.406;2023-03-01T07:26:40;12.63;;;6.82;;
19312;SDS011;9791;50.820;4.406;2023-03-01T07:29:07;11.27;;;6.25;;
19312;SDS011;9791;50.820;4.406;2023-03-01T07:31:33;10.35;;;6.35;;
19312;SDS011;9791;50.820;4.406;2023-03-01T07:34:00;10.85;;;6.75;;
19312;SDS011;9791;50.820;4.406;2023-03-01T07:36:26;12.32;;;7.40;;
19312;SDS011;9791;50.820;4.406;2023-03-01T07:38:52;12.85;;;6.05;;
19312;SDS011;9791;50.820;4.406;2023-03-01T07:41:20;12.20;;;6.05;;
19312;SDS011;9791;50.820;4.406;2023-03-01T07:43:47;9.98;;;5.30;;
19312;SDS011;9791;50.820;4.406;2023-03-01T07:46:13;11.07;;;6.90;;
19312;SDS011;9791;50.820;4.406;2023-03-01T07:48:39;12.13;;;5.97;;
19312;SDS011;9791;50.820;4.406;2023-03-01T07:51:06;10.63;;;5.95;;
19312;SDS011;9791;50.820;4.406;2023-03-01T07:53:33;10.40;;;5.53;;
19312;SDS011;9791;50.820;4.406;2023-03-01T07:58:28;10.38;;;6.03;;
19312;SDS011;9791;50.820;4.406;2023-03-01T08:00:54;12.65;;;6.10;;
19312;SDS011;9791;50.820;4.406;2023-03-01T08:03:20;13.05;;;5.72;;
19312;SDS011;9791;50.820;4.406;2023-03-01T08:05:46;8.95;;;5.47;;
19312;SDS011;9791;50.820;4.406;2023-03-01T08:08:12;13.50;;;6.30;;
19312;SDS011;9791;50.820;4.406;2023-03-01T08:10:39;10.90;;;6.57;;
19312;SDS011;9791;50.820;4.406;2023-03-01T08:13:05;9.05;;;5.75;;
19312;SDS011;9791;50.820;4.406;2023-03-01T08:15:31;10.25;;;6.28;;
19312;SDS011;9791;50.820;4.406;2023-03-01T08:17:57;9.98;;;6.47;;
19312;SDS011;9791;50.820;4.406;2023-03-01T08:20:23;11.43;;;6.95;;
19312;SDS011;9791;50.820;4.406;2023-03-01T08:22:49;10.35;;;6.45;;
19312;SDS011;9791;50.820;4.406;2023-03-01T08:25:17;10.48;;;6.18;;
19312;SDS011;9791;50.820;4.406;2023-03-01T08:27:43;9.73;;;6.38;;
19312;SDS011;9791;50.820;4.406;2023-03-01T08:30:09;10.88;;;6.72;;
19312;SDS011;9791;50.820;4.406;2023-03-01T08:32:38;9.88;;;5.72;;
19312;SDS011;9791;50.820;4.406;2023-03-01T08:35:05;9.18;;;5.93;;
19312;SDS011;9791;50.820;4.406;2023-03-01T08:37:31;9.15;;;5.68;;
19312;SDS011;9791;50.820;4.406;2023-03-01T08:39:58;10.02;;;6.28;;
19312;SDS011;9791;50.820;4.406;2023-03-01T08:42:25;8.63;;;5.80;;
19312;SDS011;9791;50.820;4.406;2023-03-01T08:44:51;10.43;;;5.55;;
19312;SDS011;9791;50.820;4.406;2023-03-01T08:47:17;9.80;;;6.53;;
19312;SDS011;9791;50.820;4.406;2023-03-01T08:49:43;9.70;;;5.78;;
19312;SDS011;9791;50.820;4.406;2023-03-01T08:52:09;9.55;;;6.35;;
19312;SDS011;9791;50.820;4.406;2023-03-01T08:54:36;10.75;;;5.90;;
19312;SDS011;9791;50.820;4.406;2023-03-01T08:57:02;10.38;;;6.30;;
19312;SDS011;9791;50.820;4.406;2023-03-01T08:59:28;10.00;;;6.15;;
19312;SDS011;9791;50.820;4.406;2023-03-01T09:01:55;11.77;;;6.35;;
19312;SDS011;9791;50.820;4.406;2023-03-01T09:04:21;11.23;;;6.47;;
19312;SDS011;9791;50.820;4.406;2023-03-01T09:06:47;8.43;;;5.90;;
19312;SDS011;9791;50.820;4.406;2023-03-01T09:09:14;10.85;;;5.82;;
19312;SDS011;9791;50.820;4.406;2023-03-01T09:11:41;10.63;;;6.72;;
19312;SDS011;9791;50.820;4.406;2023-03-01T09:14:08;10.48;;;6.88;;
19312;SDS011;9791;50.820;4.406;2023-03-01T09:16:34;9.20;;;5.88;;
19312;SDS011;9791;50.820;4.406;2023-03-01T09:19:01;11.38;;;6.57;;
19312;SDS011;9791;50.820;4.406;2023-03-01T09:21:27;11.63;;;6.20;;
19312;SDS011;9791;50.820;4.406;2023-03-01T09:23:55;13.48;;;6.10;;
19312;SDS011;9791;50.820;4.406;2023-03-01T09:26:22;9.77;;;6.03;;
19312;SDS011;9791;50.820;4.406;2023-03-01T09:28:48;11.73;;;5.90;;
19312;SDS011;9791;50.820;4.406;2023-03-01T09:31:15;8.38;;;5.75;;
19312;SDS011;9791;50.820;4.406;2023-03-01T09:33:42;9.52;;;6.30;;
19312;SDS011;9791;50.820;4.406;2023-03-01T09:36:11;10.07;;;6.10;;
19312;SDS011;9791;50.820;4.406;2023-03-01T09:38:37;11.63;;;5.70;;
19312;SDS011;9791;50.820;4.406;2023-03-01T09:41:08;9.07;;;6.55;;
19312;SDS011;9791;50.820;4.406;2023-03-01T09:43:43;11.10;;;5.80;;
19312;SDS011;9791;50.820;4.406;2023-03-01T09:46:12;11.90;;;6.05;;
19312;SDS011;9791;50.820;4.406;2023-03-01T09:48:43;13.32;;;6.53;;
19312;SDS011;9791;50.820;4.406;2023-03-01T09:51:18;10.60;;;6.43;;
19312;SDS011;9791;50.820;4.406;2023-03-01T09:53:45;11.23;;;6.13;;
19312;SDS011;9791;50.820;4.406;2023-03-01T09:56:21;9.82;;;6.78;;
19312;SDS011;9791;50.820;4.406;2023-03-01T09:59:11;13.73;;;6.75;;
19312;SDS011;9791;50.820;4.406;2023-03-01T10:09:37;13.70;;;7.63;;
19312;SDS011;9791;50.820;4.406;2023-03-01T10:12:10;11.27;;;7.05;;
19312;SDS011;9791;50.820;4.406;2023-03-01T10:17:17;10.90;;;7.50;;
19312;SDS011;9791;50.820;4.406;2023-03-01T10:19:46;10.20;;;7.35;;
19312;SDS011;9791;50.820;4.406;2023-03-01T10:22:25;12.57;;;6.60;;
19312;SDS011;9791;50.820;4.406;2023-03-01T10:24:53;9.95;;;6.93;;
19312;SDS011;9791;50.820;4.406;2023-03-01T10:29:48;9.43;;;7.00;;
19312;SDS011;9791;50.820;4.406;2023-03-01T10:32:14;9.63;;;6.55;;
19312;SDS011;9791;50.820;4.406;2023-03-01T10:34:40;10.43;;;6.95;;
19312;SDS011;9791;50.820;4.406;2023-03-01T10:37:13;9.73;;;6.25;;
19312;SDS011;9791;50.820;4.406;2023-03-01T10:40:03;9.75;;;6.32;;
19312;SDS011;9791;50.820;4.406;2023-03-01T10:42:27;9.98;;;7.32;;
19312;SDS011;9791;50.820;4.406;2023-03-01T10:44:54;8.98;;;5.88;;
19312;SDS011;9791;50.820;4.406;2023-03-01T10:47:21;8.68;;;6.57;;
19312;SDS011;9791;50.820;4.406;2023-03-01T10:50:04;11.75;;;7.35;;
19312;SDS011;9791;50.820;4.406;2023-03-01T10:52:43;10.95;;;6.70;;
19312;SDS011;9791;50.820;4.406;2023-03-01T10:55:34;11.00;;;5.97;;
19312;SDS011;9791;50.820;4.406;2023-03-01T10:58:20;9.20;;;6.80;;
19312;SDS011;9791;50.820;4.406;2023-03-01T11:00:50;8.60;;;6.15;;
19312;SDS011;9791;50.820;4.406;2023-03-01T11:03:19;9.77;;;6.35;;
19312;SDS011;9791;50.820;4.406;2023-03-01T11:05:58;9.27;;;6.22;;
19312;SDS011;9791;50.820;4.406;2023-03-01T11:13:47;11.02;;;6.30;;
19312;SDS011;9791;50.820;4.406;2023-03-01T11:16:15;9.38;;;6.30;;
19312;SDS011;9791;50.820;4.406;2023-03-01T11:18:55;10.40;;;6.05;;
19312;SDS011;9791;50.820;4.406;2023-03-01T11:21:21;10.95;;;6.07;;
19312;SDS011;9791;50.820;4.406;2023-03-01T11:23:47;9.18;;;6.35;;
19312;SDS011;9791;50.820;4.406;2023-03-01T11:26:13;8.20;;;6.05;;
19312;SDS011;9791;50.820;4.406;2023-03-01T11:28:41;9.70;;;6.60;;
19312;SDS011;9791;50.820;4.406;2023-03-01T11:31:08;10.27;;;6.50;;
19312;SDS011;9791;50.820;4.406;2023-03-01T11:33:49;10.00;;;6.25;;
19312;SDS011;9791;50.820;4.406;2023-03-01T11:36:24;11.98;;;7.00;;
19312;SDS011;9791;50.820;4.406;2023-03-01T11:38:51;9.35;;;6.03;;
19312;SDS011;9791;50.820;4.406;2023-03-01T11:41:31;8.50;;;6.30;;
19312;SDS011;9791;50.820;4.406;2023-03-01T11:44:19;8.70;;;6.00;;
19312;SDS011;9791;50.820;4.406;2023-03-01T11:46:50;10.82;;;6.50;;
19312;SDS011;9791;50.820;4.406;2023-03-01T11:52:04;10.25;;;6.15;;
19312;SDS011;9791;50.820;4.406;2023-03-01T11:57:20;9.88;;;6.53;;
19312;SDS011;9791;50.820;4.406;2023-03-01T11:59:53;9.70;;;6.28;;
19312;SDS011;9791;50.820;4.406;2023-03-01T12:07:50;8.60;;;6.20;;
19312;SDS011;9791;50.820;4.406;2023-03-01T12:13:07;9.43;;;6.22;;
19312;SDS011;9791;50.820;4.406;2023-03-01T12:21:04;13.75;;;6.30;;
19312;SDS011;9791;50.820;4.406;2023-03-01T12:28:48;8.85;;;6.20;;
19312;SDS011;9791;50.820;4.406;2023-03-01T12:31:28;9.88;;;6.22;;
19312;SDS011;9791;50.820;4.406;2023-03-01T12:33:58;9.15;;;5.88;;
19312;SDS011;9791;50.820;4.406;2023-03-01T12:39:09;9.07;;;6.00;;
19312;SDS011;9791;50.820;4.406;2023-03-01T12:41:48;10.13;;;6.68;;
19312;SDS011;9791;50.820;4.406;2023-03-01T12:44:30;10.00;;;6.10;;
19312;SDS011;9791;50.820;4.406;2023-03-01T12:47:05;9.35;;;6.40;;
19312;SDS011;9791;50.820;4.406;2023-03-01T12:49:40;9.73;;;6.47;;
19312;SDS011;9791;50.820;4.406;2023-03-01T12:52:22;14.80;;;6.90;;
19312;SDS011;9791;50.820;4.406;2023-03-01T12:54:49;9.50;;;6.57;;
19312;SDS011;9791;50.820;4.406;2023-03-01T12:57:27;12.15;;;6.40;;
19312;SDS011;9791;50.820;4.406;2023-03-01T13:10:43;11.35;;;6.65;;
19312;SDS011;9791;50.820;4.406;2023-03-01T13:13:13;12.20;;;7.35;;
19312;SDS011;9791;50.820;4.406;2023-03-01T13:15:39;12.57;;;7.00;;
19312;SDS011;9791;50.820;4.406;2023-03-01T13:33:52;10.88;;;6.97;;
19312;SDS011;9791;50.820;4.406;2023-03-01T13:39:27;14.63;;;7.47;;
19312;SDS011;9791;50.820;4.406;2023-03-01T13:41:57;10.25;;;7.03;;
19312;SDS011;9791;50.820;4.406;2023-03-01T13:46:57;9.80;;;6.82;;
19312;SDS011;9791;50.820;4.406;2023-03-01T13:49:27;10.95;;;7.18;;
19312;SDS011;9791;50.820;4.406;2023-03-01T13:51:54;12.15;;;6.57;;
19312;SDS011;9791;50.820;4.406;2023-03-01T13:54:25;13.85;;;6.70;;
19312;SDS011;9791;50.820;4.406;2023-03-01T13:56:52;10.18;;;6.22;;
19312;SDS011;9791;50.820;4.406;2023-03-01T13:59:20;11.88;;;7.43;;
19312;SDS011;9791;50.820;4.406;2023-03-01T14:01:56;15.18;;;7.50;;
19312;SDS011;9791;50.820;4.406;2023-03-01T14:04:27;10.07;;;6.45;;
19312;SDS011;9791;50.820;4.406;2023-03-01T14:07:26;13.45;;;7.32;;
19312;SDS011;9791;50.820;4.406;2023-03-01T14:09:46;12.82;;;7.50;;
19312;SDS011;9791;50.820;4.406;2023-03-01T14:14:47;11.55;;;7.22;;
19312;SDS011;9791;50.820;4.406;2023-03-01T14:19:59;12.02;;;7.25;;
19312;SDS011;9791;50.820;4.406;2023-03-01T14:22:27;10.23;;;6.80;;
19312;SDS011;9791;50.820;4.406;2023-03-01T14:24:58;13.52;;;7.45;;
19312;SDS011;9791;50.820;4.406;2023-03-01T14:27:42;9.57;;;6.93;;
19312;SDS011;9791;50.820;4.406;2023-03-01T14:30:13;12.15;;;6.70;;
19312;SDS011;9791;50.820;4.406;2023-03-01T14:32:40;11.75;;;7.05;;
19312;SDS011;9791;50.820;4.406;2023-03-01T14:35:39;12.82;;;6.97;;
19312;SDS011;9791;50.820;4.406;2023-03-01T14:37:58;10.57;;;6.78;;
19312;SDS011;9791;50.820;4.406;2023-03-01T14:40:28;11.02;;;7.18;;
19312;SDS011;9791;50.820;4.406;2023-03-01T14:42:57;9.57;;;6.82;;
19312;SDS011;9791;50.820;4.406;2023-03-01T14:45:24;14.93;;;6.97;;
19312;SDS011;9791;50.820;4.406;2023-03-01T14:47:51;9.27;;;6.38;;
19312;SDS011;9791;50.820;4.406;2023-03-01T14:50:25;11.65;;;7.20;;
19312;SDS011;9791;50.820;4.406;2023-03-01T14:52:52;11.57;;;7.45;;
19312;SDS011;9791;50.820;4.406;2023-03-01T14:55:20;14.82;;;6.63;;
19312;SDS011;9791;50.820;4.406;2023-03-01T14:57:48;10.40;;;6.43;;
19312;SDS011;9791;50.820;4.406;2023-03-01T15:00:19;11.27;;;6.88;;
19312;SDS011;9791;50.820;4.406;2023-03-01T15:02:46;14.70;;;6.47;;
19312;SDS011;9791;50.820;4.406;2023-03-01T15:05:13;10.80;;;6.80;;
19312;SDS011;9791;50.820;4.406;2023-03-01T15:07:41;9.52;;;6.50;;
19312;SDS011;9791;50.820;4.406;2023-03-01T15:10:20;13.93;;;7.75;;
19312;SDS011;9791;50.820;4.406;2023-03-01T15:12:47;9.38;;;6.57;;
19312;SDS011;9791;50.820;4.406;2023-03-01T15:15:33;14.73;;;7.60;;
19312;SDS011;9791;50.820;4.406;2023-03-01T15:18:00;12.98;;;6.97;;
19312;SDS011;9791;50.820;4.406;2023-03-01T15:20:28;12.07;;;6.40;;
19312;SDS011;9791;50.820;4.406;2023-03-01T15:22:55;11.98;;;8.23;;
19312;SDS011;9791;50.820;4.406;2023-03-01T15:25:23;12.63;;;6.70;;
19312;SDS011;9791;50.820;4.406;2023-03-01T15:27:50;11.60;;;6.65;;
19312;SDS011;9791;50.820;4.406;2023-03-01T15:30:27;14.68;;;7.78;;
19312;SDS011;9791;50.820;4.406;2023-03-01T15:35:45;13.52;;;7.43;;
19312;SDS011;9791;50.820;4.406;2023-03-01T15:40:57;12.65;;;7.15;;
19312;SDS011;9791;50.820;4.406;2023-03-01T15:43:43;13.07;;;7.10;;
19312;SDS011;9791;50.820;4.406;2023-03-01T15:48:50;10.85;;;7.15;;
19312;SDS011;9791;50.820;4.406;2023-03-01T15:51:17;12.93;;;7.20;;
19312;SDS011;9791;50.820;4.406;2023-03-01T15:53:51;12.68;;;6.72;;
19312;SDS011;9791;50.820;4.406;2023-03-01T15:56:18;11.43;;;7.05;;
19312;SDS011;9791;50.820;4.406;2023-03-01T15:58:45;16.80;;;7.07;;
19312;SDS011;9791;50.820;4.406;2023-03-01T16:01:15;14.32;;;6.00;;
19312;SDS011;9791;50.820;4.406;2023-03-01T16:03:44;13.20;;;7.30;;
19312;SDS011;9791;50.820;4.406;2023-03-01T16:06:11;13.70;;;7.15;;
19312;SDS011;9791;50.820;4.406;2023-03-01T16:08:37;10.45;;;6.53;;
19312;SDS011;9791;50.820;4.406;2023-03-01T16:11:24;11.43;;;7.32;;
19312;SDS011;9791;50.820;4.406;2023-03-01T16:13:50;15.10;;;7.70;;
19312;SDS011;9791;50.820;4.406;2023-03-01T16:16:16;11.82;;;6.72;;
19312;SDS011;9791;50.820;4.406;2023-03-01T16:18:43;11.13;;;6.60;;
19312;SDS011;9791;50.820;4.406;2023-03-01T16:21:14;12.70;;;6.32;;
19312;SDS011;9791;50.820;4.406;2023-03-01T16:23:41;12.50;;;6.50;;
19312;SDS011;9791;50.820;4.406;2023-03-01T16:26:07;10.88;;;6.63;;
19312;SDS011;9791;50.820;4.406;2023-03-01T16:28:33;12.95;;;6.03;;
19312;SDS011;9791;50.820;4.406;2023-03-01T16:30:59;9.27;;;5.78;;
19312;SDS011;9791;50.820;4.406;2023-03-01T16:33:26;10.70;;;6.00;;
19312;SDS011;9791;50.820;4.406;2023-03-01T16:35:52;13.95;;;5.47;;
19312;SDS011;9791;50.820;4.406;2023-03-01T16:38:18;10.73;;;5.80;;
19312;SDS011;9791;50.820;4.406;2023-03-01T16:40:48;12.02;;;6.43;;
19312;SDS011;9791;50.820;4.406;2023-03-01T16:43:15;14.70;;;6.45;;